createdAt,value
2023-05-10T00:00:46.046Z,15.52
2023-05-10T00:03:48.690Z,15.50
2023-05-10T00:06:51.316Z,15.28
2023-05-10T00:09:53.889Z,15.18
2023-05-10T00:12:57.853Z,15.19
2023-05-10T00:16:00.581Z,15.04
2023-05-10T00:19:03.244Z,15.08
2023-05-10T00:22:05.940Z,15.06
2023-05-10T00:25:10.248Z,15.06
2023-05-10T00:28:14.140Z,14.96
2023-05-10T00:31:16.635Z,14.84
2023-05-10T00:34:19.267Z,14.88
2023-05-10T00:37:21.991Z,14.95
2023-05-10T00:40:24.745Z,14.74
2023-05-10T00:43:28.570Z,14.62
2023-05-10T00:46:31.330Z,14.72
2023-05-10T00:49:33.990Z,14.72
2023-05-10T00:52:36.682Z,14.73
2023-05-10T00:55:39.609Z,14.65
2023-05-10T00:58:43.800Z,14.58
2023-05-10T01:01:46.512Z,14.48
2023-05-10T01:04:49.284Z,14.59
2023-05-10T01:07:51.974Z,14.68
2023-05-10T01:10:54.622Z,14.73
2023-05-10T01:13:59.486Z,14.82
2023-05-10T01:17:03.039Z,14.75
2023-05-10T01:20:06.415Z,14.94
2023-05-10T01:23:23.128Z,14.95
2023-05-10T01:26:52.395Z,14.95
2023-05-10T01:30:15.887Z,15.00
2023-05-10T01:33:20.399Z,15.06
2023-05-10T01:36:27.011Z,14.95
2023-05-10T01:39:39.469Z,15.03
2023-05-10T01:42:47.017Z,15.02
2023-05-10T01:45:54.114Z,15.01
2023-05-10T01:48:59.977Z,14.96
2023-05-10T01:52:05.906Z,14.82
2023-05-10T01:55:10.677Z,14.88
2023-05-10T01:58:16.449Z,14.90
2023-05-10T02:01:20.484Z,14.80
2023-05-10T02:04:25.752Z,14.71
2023-05-10T02:07:29.356Z,14.70
2023-05-10T02:10:32.761Z,14.74
2023-05-10T02:13:36.617Z,14.73
2023-05-10T02:16:41.082Z,14.69
2023-05-10T02:19:46.269Z,14.68
2023-05-10T02:22:50.740Z,14.64
2023-05-10T02:25:54.075Z,14.60
2023-05-10T02:28:57.135Z,14.49
2023-05-10T02:32:00.361Z,14.50
2023-05-10T02:35:05.250Z,14.62
2023-05-10T02:38:08.663Z,14.78
2023-05-10T02:41:11.856Z,14.80
2023-05-10T02:44:16.635Z,14.83
2023-05-10T02:47:19.939Z,14.94
2023-05-10T02:50:24.571Z,14.94
2023-05-10T02:53:33.526Z,14.95
2023-05-10T02:56:40.468Z,14.93
2023-05-10T02:59:43.782Z,14.95
2023-05-10T03:02:46.615Z,14.94
2023-05-10T03:05:50.745Z,14.91
2023-05-10T03:08:53.261Z,14.90
2023-05-10T03:12:00.691Z,14.90
2023-05-10T03:15:06.974Z,14.86
2023-05-10T03:18:11.692Z,14.85
2023-05-10T03:21:16.123Z,14.91
2023-05-10T03:24:21.045Z,14.97
2023-05-10T03:27:24.496Z,14.93
2023-05-10T03:30:26.907Z,14.96
2023-05-10T03:33:29.500Z,14.95
2023-05-10T03:36:33.508Z,14.98
2023-05-10T03:39:36.087Z,14.98
2023-05-10T03:42:38.648Z,15.01
2023-05-10T03:45:41.174Z,15.11
2023-05-10T03:48:43.909Z,15.12
2023-05-10T03:51:48.085Z,15.11
2023-05-10T03:54:50.649Z,15.12
2023-05-10T03:57:54.751Z,15.17
2023-05-10T04:00:57.204Z,14.98
2023-05-10T04:03:59.857Z,14.92
2023-05-10T04:07:03.898Z,14.91
2023-05-10T04:10:07.461Z,14.95
2023-05-10T04:13:10.819Z,14.94
2023-05-10T04:16:13.717Z,14.96
2023-05-10T04:19:16.400Z,14.99
2023-05-10T04:22:20.355Z,15.08
2023-05-10T04:25:23.080Z,15.23
2023-05-10T04:28:25.765Z,15.25
2023-05-10T04:31:29.012Z,15.23
2023-05-10T04:34:31.761Z,15.28
2023-05-10T04:37:35.572Z,15.44
2023-05-10T04:40:38.083Z,15.49
2023-05-10T04:43:40.646Z,15.49
2023-05-10T04:46:43.188Z,15.42
2023-05-10T04:49:46.231Z,15.49
2023-05-10T04:52:50.251Z,15.48
2023-05-10T04:55:52.820Z,15.47
2023-05-10T04:58:55.522Z,15.51
2023-05-10T05:01:58.108Z,15.62
2023-05-10T05:05:00.661Z,15.70
2023-05-10T05:08:05.227Z,15.82
2023-05-10T05:11:08.094Z,15.95
2023-05-10T05:14:10.708Z,16.18
2023-05-10T05:17:13.326Z,16.28
2023-05-10T05:20:16.451Z,16.35
2023-05-10T05:23:21.963Z,16.31
2023-05-10T05:26:24.653Z,16.48
2023-05-10T05:29:27.275Z,16.60
2023-05-10T05:32:30.027Z,16.67
2023-05-10T05:35:32.617Z,16.56
2023-05-10T05:38:36.660Z,16.75
2023-05-10T05:41:39.249Z,16.89
2023-05-10T05:44:42.072Z,16.97
2023-05-10T05:47:44.809Z,16.79
2023-05-10T05:50:47.568Z,16.96
2023-05-10T05:53:51.646Z,17.11
2023-05-10T05:56:56.158Z,17.07
2023-05-10T05:59:58.814Z,17.15
2023-05-10T06:03:01.524Z,16.83
2023-05-10T06:06:04.152Z,17.09
2023-05-10T06:09:08.122Z,17.44
2023-05-10T06:12:10.831Z,17.52
2023-05-10T06:15:13.905Z,17.50
2023-05-10T06:18:16.679Z,17.67
2023-05-10T06:21:19.188Z,17.81
2023-05-10T06:24:23.433Z,17.92
2023-05-10T06:27:26.042Z,18.07
2023-05-10T06:30:29.896Z,18.19
2023-05-10T06:33:33.077Z,18.17
2023-05-10T06:36:35.677Z,18.09
2023-05-10T06:39:39.545Z,18.26
2023-05-10T06:42:42.230Z,18.05
2023-05-10T06:45:44.732Z,17.19
2023-05-10T06:48:47.278Z,17.11
2023-05-10T06:51:50.026Z,17.42
2023-05-10T06:54:53.955Z,17.62
2023-05-10T06:57:56.658Z,17.66
2023-05-10T07:01:04.219Z,17.54
2023-05-10T07:04:08.372Z,17.15
2023-05-10T07:07:11.034Z,17.55
2023-05-10T07:10:15.181Z,18.06
2023-05-10T07:13:17.806Z,18.70
2023-05-10T07:16:20.801Z,18.65
2023-05-10T07:19:23.470Z,18.90
2023-05-10T07:22:25.947Z,19.44
2023-05-10T07:25:29.867Z,19.44
2023-05-10T07:28:32.481Z,19.68
2023-05-10T07:31:34.980Z,20.21
2023-05-10T07:34:37.525Z,20.20
2023-05-10T07:37:40.296Z,20.33
2023-05-10T07:40:44.265Z,20.56
2023-05-10T07:43:46.893Z,21.04
2023-05-10T07:46:49.752Z,21.05
2023-05-10T07:49:52.406Z,20.99
2023-05-10T07:52:54.882Z,20.98
2023-05-10T07:56:00.396Z,20.74
2023-05-10T07:59:04.692Z,20.28
2023-05-10T08:02:07.529Z,20.17
2023-05-10T08:05:10.440Z,19.46
2023-05-10T08:08:13.657Z,18.92
2023-05-10T08:11:18.359Z,19.09
2023-05-10T08:14:21.408Z,18.75
2023-05-10T08:17:24.793Z,18.83
2023-05-10T08:20:27.812Z,18.92
2023-05-10T08:23:30.295Z,19.49
2023-05-10T08:26:34.514Z,19.58
2023-05-10T08:29:48.959Z,19.15
2023-05-10T08:32:52.991Z,18.65
2023-05-10T08:35:55.619Z,18.82
2023-05-10T08:38:58.116Z,19.31
2023-05-10T08:42:04.516Z,19.37
2023-05-10T08:45:08.585Z,18.82
2023-05-10T08:48:12.748Z,19.19
2023-05-10T08:51:17.492Z,19.68
2023-05-10T08:54:20.548Z,19.36
2023-05-10T08:57:24.687Z,19.98
2023-05-10T09:00:27.420Z,20.96
2023-05-10T09:03:30.075Z,21.35
2023-05-10T09:06:33.112Z,20.90
2023-05-10T09:09:35.969Z,20.95
2023-05-10T09:12:40.286Z,21.94
2023-05-10T09:15:43.294Z,21.44
2023-05-10T09:18:46.003Z,21.46
2023-05-10T09:21:48.552Z,21.07
2023-05-10T09:25:05.585Z,19.00
2023-05-10T09:28:10.458Z,18.63
2023-05-10T09:31:13.741Z,19.28
2023-05-10T09:34:20.042Z,19.29
2023-05-10T09:37:31.306Z,20.16
2023-05-10T09:40:34.084Z,20.73
2023-05-10T09:43:40.979Z,22.29
2023-05-10T09:46:43.638Z,22.63
2023-05-10T09:49:46.269Z,21.97
2023-05-10T09:52:51.397Z,21.86
2023-05-10T09:55:53.897Z,20.99
2023-05-10T09:59:05.647Z,21.26
2023-05-10T10:02:08.613Z,21.08
2023-05-10T10:05:11.762Z,21.30
2023-05-10T10:08:15.222Z,20.70
2023-05-10T10:11:18.110Z,21.00
2023-05-10T10:14:22.298Z,20.64
2023-05-10T10:17:26.423Z,20.12
2023-05-10T10:20:31.099Z,19.13
2023-05-10T10:23:33.861Z,19.13
2023-05-10T10:26:39.318Z,20.12
2023-05-10T10:29:50.436Z,21.28
2023-05-10T10:33:20.617Z,22.08
2023-05-10T10:36:31.372Z,22.53
2023-05-10T10:39:34.346Z,22.17
2023-05-10T10:42:47.019Z,22.30
2023-05-10T10:46:12.353Z,20.90
2023-05-10T10:49:18.194Z,21.11
2023-05-10T10:52:27.733Z,20.63
2023-05-10T10:55:31.331Z,20.01
2023-05-10T10:58:34.353Z,19.83
2023-05-10T11:01:38.338Z,19.11
2023-05-10T11:04:47.468Z,19.17
2023-05-10T11:07:53.916Z,18.12
2023-05-10T11:11:08.847Z,17.95
2023-05-10T11:14:12.106Z,18.66
2023-05-10T11:17:30.327Z,18.87
2023-05-10T11:20:40.843Z,18.63
2023-05-10T11:23:52.230Z,19.01
2023-05-10T11:26:55.653Z,19.25
2023-05-10T11:29:58.033Z,19.31
2023-05-10T11:33:02.229Z,19.32
2023-05-10T11:36:04.921Z,20.85
2023-05-10T11:39:07.835Z,21.52
2023-05-10T11:42:12.138Z,22.53
2023-05-10T11:45:14.830Z,21.07
2023-05-10T11:48:23.232Z,21.72
2023-05-10T11:51:26.882Z,21.77
2023-05-10T11:54:29.573Z,21.31
2023-05-10T11:57:33.199Z,20.22
2023-05-10T12:00:36.031Z,19.31
2023-05-10T12:03:40.795Z,18.62
2023-05-10T12:06:43.665Z,19.01
2023-05-10T12:09:46.591Z,18.81
2023-05-10T12:12:49.716Z,19.10
2023-05-10T12:15:52.245Z,19.62
2023-05-10T12:18:59.138Z,19.96
2023-05-10T12:22:01.740Z,20.82
2023-05-10T12:25:04.948Z,20.69
2023-05-10T12:28:09.443Z,20.36
2023-05-10T12:31:11.974Z,20.51
2023-05-10T12:34:25.154Z,21.25
2023-05-10T12:37:30.205Z,21.36
2023-05-10T12:40:32.728Z,21.42
2023-05-10T12:43:36.441Z,20.78
2023-05-10T12:46:39.052Z,20.52
2023-05-10T12:49:43.099Z,20.76
2023-05-10T12:52:45.836Z,21.15
2023-05-10T12:55:48.422Z,20.97
2023-05-10T12:58:51.858Z,21.08
2023-05-10T13:01:54.388Z,20.49
2023-05-10T13:04:58.981Z,19.93
2023-05-10T13:08:02.092Z,19.90
2023-05-10T13:11:05.178Z,19.84
2023-05-10T13:14:08.169Z,19.80
2023-05-10T13:17:10.872Z,19.28
2023-05-10T13:20:15.809Z,18.65
2023-05-10T13:23:18.359Z,19.07
2023-05-10T13:26:21.200Z,20.18
2023-05-10T13:29:23.746Z,20.53
2023-05-10T13:32:26.572Z,21.40
2023-05-10T13:35:30.733Z,22.25
2023-05-10T13:38:33.351Z,22.48
2023-05-10T13:41:35.864Z,23.31
2023-05-10T13:44:39.849Z,23.00
2023-05-10T13:47:42.509Z,21.85
2023-05-10T13:50:47.038Z,21.50
2023-05-10T13:53:49.627Z,21.14
2023-05-10T13:56:52.288Z,20.85
2023-05-10T13:59:55.939Z,20.67
2023-05-10T14:03:00.490Z,20.53
2023-05-10T14:06:04.641Z,20.43
2023-05-10T14:09:07.172Z,20.77
2023-05-10T14:12:09.790Z,20.91
2023-05-10T14:15:12.959Z,20.96
2023-05-10T14:18:15.638Z,21.30
2023-05-10T14:21:19.656Z,21.20
2023-05-10T14:24:22.484Z,21.42
2023-05-10T14:27:25.465Z,22.84
2023-05-10T14:30:28.099Z,22.15
2023-05-10T14:33:30.624Z,22.94
2023-05-10T14:36:34.526Z,23.41
2023-05-10T14:39:37.045Z,23.66
2023-05-10T14:42:39.690Z,22.73
2023-05-10T14:45:42.359Z,23.21
2023-05-10T14:48:44.948Z,22.09
2023-05-10T14:51:49.049Z,21.38
2023-05-10T14:54:51.552Z,21.29
2023-05-10T14:57:54.216Z,21.84
2023-05-10T15:00:57.832Z,22.03
2023-05-10T15:04:01.040Z,23.22
2023-05-10T15:07:05.505Z,22.53
2023-05-10T15:10:09.408Z,22.09
2023-05-10T15:13:13.146Z,22.49
2023-05-10T15:16:15.957Z,22.09
2023-05-10T15:19:18.624Z,22.13
2023-05-10T15:22:23.247Z,21.47
2023-05-10T15:25:25.973Z,21.55
2023-05-10T15:28:28.491Z,21.11
2023-05-10T15:31:31.290Z,21.92
2023-05-10T15:34:35.096Z,22.19
2023-05-10T15:37:40.973Z,22.78
2023-05-10T15:40:43.502Z,23.21
2023-05-10T15:43:46.160Z,22.86
2023-05-10T15:46:49.207Z,22.56
2023-05-10T15:49:51.894Z,22.30
2023-05-10T15:52:55.835Z,22.38
2023-05-10T15:55:58.473Z,21.69
2023-05-10T15:59:01.166Z,21.84
2023-05-10T16:02:04.362Z,21.35
2023-05-10T16:05:06.951Z,21.77
2023-05-10T16:08:10.932Z,21.34
2023-05-10T16:11:13.724Z,21.29
2023-05-10T16:14:16.267Z,21.40
2023-05-10T16:17:20.338Z,21.20
2023-05-10T16:20:23.070Z,21.01
2023-05-10T16:23:27.998Z,20.88
2023-05-10T16:26:30.635Z,20.90
2023-05-10T16:29:33.225Z,20.42
2023-05-10T16:32:36.073Z,20.43
2023-05-10T16:35:38.589Z,20.84
2023-05-10T16:38:42.557Z,20.91
2023-05-10T16:41:45.390Z,20.63
2023-05-10T16:44:48.075Z,20.67
2023-05-10T16:47:51.061Z,20.53
2023-05-10T16:50:53.618Z,20.27
2023-05-10T16:53:57.624Z,20.12
2023-05-10T16:57:01.267Z,19.75
2023-05-10T17:00:04.443Z,19.62
2023-05-10T17:03:07.074Z,19.00
2023-05-10T17:06:10.157Z,18.77
2023-05-10T17:09:14.352Z,18.74
2023-05-10T17:12:17.189Z,18.75
2023-05-10T17:15:20.951Z,18.75
2023-05-10T17:18:23.818Z,18.62
2023-05-10T17:21:27.715Z,18.31
2023-05-10T17:24:32.907Z,18.27
2023-05-10T17:27:35.677Z,18.14
2023-05-10T17:30:38.274Z,18.10
2023-05-10T17:33:40.886Z,18.20
2023-05-10T17:36:43.487Z,17.84
2023-05-10T17:39:47.466Z,17.80
2023-05-10T17:42:50.130Z,17.68
2023-05-10T17:45:52.985Z,17.49
2023-05-10T17:48:55.775Z,17.69
2023-05-10T17:51:58.703Z,17.79
2023-05-10T17:55:02.716Z,17.66
2023-05-10T17:58:05.352Z,17.53
2023-05-10T18:01:08.022Z,17.50
2023-05-10T18:04:10.550Z,17.45
2023-05-10T18:07:13.522Z,17.38
2023-05-10T18:10:17.392Z,17.33
2023-05-10T18:13:20.025Z,17.21
2023-05-10T18:16:22.872Z,17.10
2023-05-10T18:19:25.713Z,17.03
2023-05-10T18:22:28.255Z,17.02
2023-05-10T18:25:32.354Z,16.88
2023-05-10T18:28:34.921Z,16.78
2023-05-10T18:31:37.576Z,16.59
2023-05-10T18:34:40.178Z,16.42
2023-05-10T18:37:43.193Z,16.41
2023-05-10T18:40:47.066Z,16.34
2023-05-10T18:43:49.608Z,16.24
2023-05-10T18:46:54.183Z,16.07
2023-05-10T18:49:57.171Z,15.99
2023-05-10T18:52:59.681Z,15.93
2023-05-10T18:56:03.574Z,15.82
2023-05-10T18:59:06.291Z,15.64
2023-05-10T19:02:09.029Z,15.62
2023-05-10T19:05:11.782Z,15.62
2023-05-10T19:08:14.524Z,15.59
2023-05-10T19:11:18.422Z,15.60
2023-05-10T19:14:21.380Z,15.51
2023-05-10T19:17:24.257Z,15.48
2023-05-10T19:20:28.226Z,15.45
2023-05-10T19:23:32.362Z,15.46
2023-05-10T19:26:36.406Z,15.40
2023-05-10T19:29:39.122Z,15.37
2023-05-10T19:32:44.159Z,15.44
2023-05-10T19:35:46.998Z,15.49
2023-05-10T19:38:49.946Z,15.51
2023-05-10T19:41:53.896Z,15.62
2023-05-10T19:44:57.518Z,15.60
2023-05-10T19:48:00.170Z,15.66
2023-05-10T19:51:04.558Z,15.70
2023-05-10T19:54:08.493Z,15.73
2023-05-10T19:57:13.986Z,15.75
2023-05-10T20:00:17.452Z,15.73
2023-05-10T20:03:20.005Z,15.68
2023-05-10T20:06:22.584Z,15.76
2023-05-10T20:09:25.197Z,15.74
2023-05-10T20:12:29.054Z,15.67
2023-05-10T20:15:31.759Z,15.71
2023-05-10T20:18:34.343Z,15.74
2023-05-10T20:21:36.954Z,15.82
2023-05-10T20:24:39.462Z,15.80
2023-05-10T20:27:43.511Z,15.77
2023-05-10T20:30:46.113Z,15.74
2023-05-10T20:33:48.735Z,15.75
2023-05-10T20:36:51.347Z,15.76
2023-05-10T20:39:54.052Z,15.72
2023-05-10T20:42:58.134Z,15.69
2023-05-10T20:46:05.188Z,15.69
2023-05-10T20:49:09.437Z,15.63
2023-05-10T20:52:12.524Z,15.59
2023-05-10T20:55:15.074Z,15.58
2023-05-10T20:58:19.129Z,15.54
2023-05-10T21:01:21.718Z,15.50
2023-05-10T21:04:24.620Z,15.50
2023-05-10T21:07:27.288Z,15.51
2023-05-10T21:10:29.904Z,15.57
2023-05-10T21:13:34.000Z,15.54
2023-05-10T21:16:36.837Z,15.50
2023-05-10T21:19:39.492Z,15.40
2023-05-10T21:22:42.214Z,15.40
2023-05-10T21:25:44.961Z,15.37
2023-05-10T21:28:49.073Z,15.35
2023-05-10T21:31:51.645Z,15.25
2023-05-10T21:34:54.340Z,15.31
2023-05-10T21:37:57.292Z,15.21
2023-05-10T21:40:59.903Z,15.08
2023-05-10T21:44:03.824Z,15.07
2023-05-10T21:47:06.502Z,15.24
2023-05-10T21:50:10.398Z,15.14
2023-05-10T21:53:13.117Z,15.14
2023-05-10T21:56:15.880Z,15.11
2023-05-10T21:59:21.423Z,15.07
2023-05-10T22:02:24.088Z,15.05
2023-05-10T22:05:27.082Z,15.07
2023-05-10T22:08:29.809Z,15.01
2023-05-10T22:11:32.464Z,14.98
2023-05-10T22:14:36.593Z,14.98
2023-05-10T22:17:40.334Z,14.95
2023-05-10T22:20:45.584Z,14.95
2023-05-10T22:23:48.422Z,14.90
2023-05-10T22:26:51.423Z,14.83
2023-05-10T22:29:55.360Z,14.83
2023-05-10T22:32:59.989Z,14.79
2023-05-10T22:36:02.664Z,14.69
2023-05-10T22:39:05.456Z,14.65
2023-05-10T22:42:08.129Z,14.69
2023-05-10T22:45:12.957Z,14.62
2023-05-10T22:48:16.073Z,14.61
2023-05-10T22:51:18.688Z,14.58
2023-05-10T22:54:21.376Z,14.60
2023-05-10T22:57:24.444Z,14.57
2023-05-10T23:00:28.385Z,14.52
2023-05-10T23:03:31.141Z,14.45
2023-05-10T23:06:33.968Z,14.48
2023-05-10T23:09:36.671Z,14.48
2023-05-10T23:12:39.416Z,14.45
2023-05-10T23:15:43.583Z,14.37
2023-05-10T23:18:46.229Z,14.38
2023-05-10T23:21:48.951Z,14.39
2023-05-10T23:24:51.506Z,14.35
2023-05-10T23:27:54.240Z,14.28
2023-05-10T23:30:59.002Z,14.25
2023-05-10T23:34:01.698Z,14.18
2023-05-10T23:37:04.325Z,14.10
2023-05-10T23:40:08.352Z,14.12
2023-05-10T23:43:10.888Z,14.11
2023-05-10T23:46:14.877Z,14.13
2023-05-10T23:49:18.231Z,14.16
2023-05-10T23:52:22.761Z,14.15
2023-05-10T23:55:25.312Z,14.16
2023-05-10T23:58:27.780Z,14.18
